createdAt,value
2022-10-17T00:00:15.487Z,19.60
2022-10-17T00:02:20.188Z,20.20
2022-10-17T00:04:24.871Z,19.50
2022-10-17T00:06:29.501Z,20.00
2022-10-17T00:08:34.599Z,19.60
2022-10-17T00:10:39.602Z,19.40
2022-10-17T00:12:44.316Z,19.20
2022-10-17T00:14:52.307Z,19.90
2022-10-17T00:16:56.967Z,19.60
2022-10-17T00:19:01.971Z,19.30
2022-10-17T00:21:14.599Z,19.20
2022-10-17T00:23:19.294Z,18.60
2022-10-17T00:25:24.065Z,19.00
2022-10-17T00:27:29.348Z,19.90
2022-10-17T00:29:34.318Z,19.50
2022-10-17T00:31:39.040Z,19.70
2022-10-17T00:33:43.650Z,20.10
2022-10-17T00:35:48.369Z,20.30
2022-10-17T00:37:53.113Z,20.30
2022-10-17T00:39:57.835Z,20.90
2022-10-17T00:42:02.511Z,23.10
2022-10-17T00:44:23.087Z,20.70
2022-10-17T00:46:29.923Z,20.30
2022-10-17T00:48:34.670Z,21.00
2022-10-17T00:50:42.917Z,20.70
2022-10-17T00:52:48.926Z,20.80
2022-10-17T00:54:57.932Z,20.50
2022-10-17T00:57:02.817Z,20.30
2022-10-17T00:59:09.230Z,20.20
2022-10-17T01:01:18.756Z,20.50
2022-10-17T01:03:23.588Z,19.70
2022-10-17T01:05:29.086Z,20.30
2022-10-17T01:07:37.131Z,20.00
2022-10-17T01:09:44.437Z,20.70
2022-10-17T01:11:59.554Z,19.60
2022-10-17T01:14:17.208Z,19.40
2022-10-17T01:16:33.229Z,19.70
2022-10-17T01:18:51.628Z,19.50
2022-10-17T01:21:20.786Z,19.50
2022-10-17T01:24:01.929Z,20.20
2022-10-17T01:26:19.334Z,19.00
2022-10-17T01:28:46.725Z,19.90
2022-10-17T01:31:10.241Z,19.30
2022-10-17T01:33:23.284Z,19.30
2022-10-17T01:35:32.480Z,18.80
2022-10-17T01:37:45.857Z,19.30
2022-10-17T01:39:53.454Z,19.10
2022-10-17T01:42:10.415Z,19.20
2022-10-17T01:44:19.603Z,19.50
2022-10-17T01:46:28.606Z,19.20
2022-10-17T01:48:37.931Z,18.20
2022-10-17T01:50:48.814Z,19.70
2022-10-17T01:52:56.995Z,19.20
2022-10-17T01:55:07.596Z,20.00
2022-10-17T01:57:20.348Z,18.90
2022-10-17T01:59:29.269Z,19.50
2022-10-17T02:01:36.901Z,18.70
2022-10-17T02:03:45.030Z,18.10
2022-10-17T02:05:49.920Z,18.00
2022-10-17T02:07:54.673Z,18.80
2022-10-17T02:09:59.689Z,18.80
2022-10-17T02:12:37.866Z,19.30
2022-10-17T02:14:57.004Z,18.50
2022-10-17T02:17:08.536Z,19.10
2022-10-17T02:19:46.392Z,18.50
2022-10-17T02:22:01.432Z,18.70
2022-10-17T02:24:15.160Z,19.00
2022-10-17T02:26:25.982Z,23.80
2022-10-17T02:28:38.373Z,19.30
2022-10-17T02:30:47.190Z,18.20
2022-10-17T02:32:59.073Z,18.00
2022-10-17T02:35:07.511Z,18.90
2022-10-17T02:37:15.728Z,18.70
2022-10-17T02:39:22.243Z,18.50
2022-10-17T02:43:39.286Z,19.10
2022-10-17T02:45:44.140Z,17.90
2022-10-17T02:47:56.026Z,18.50
2022-10-17T02:50:00.766Z,18.40
2022-10-17T02:52:10.693Z,18.40
2022-10-17T02:54:20.841Z,18.00
2022-10-17T02:56:28.269Z,18.10
2022-10-17T02:58:36.389Z,18.20
2022-10-17T03:00:42.655Z,17.40
2022-10-17T03:02:49.226Z,18.30
2022-10-17T03:04:53.936Z,18.40
2022-10-17T03:06:58.649Z,18.10
2022-10-17T03:09:03.375Z,17.80
2022-10-17T03:11:08.340Z,18.60
2022-10-17T03:13:13.047Z,18.30
2022-10-17T03:15:18.088Z,17.90
2022-10-17T03:17:22.820Z,18.00
2022-10-17T03:19:27.564Z,18.00
2022-10-17T03:21:32.649Z,19.40
2022-10-17T03:23:37.350Z,18.60
2022-10-17T03:25:42.435Z,18.70
2022-10-17T03:27:47.171Z,18.40
2022-10-17T03:29:51.847Z,18.10
2022-10-17T03:31:56.583Z,18.30
2022-10-17T03:34:01.645Z,18.60
2022-10-17T03:36:11.026Z,18.40
2022-10-17T03:38:15.906Z,18.70
2022-10-17T03:40:22.708Z,17.70
2022-10-17T03:42:27.460Z,18.60
2022-10-17T03:44:32.110Z,18.90
2022-10-17T03:46:37.020Z,18.60
2022-10-17T03:48:42.072Z,18.60
2022-10-17T03:50:46.767Z,18.70
2022-10-17T03:52:51.669Z,18.80
2022-10-17T03:54:56.752Z,18.10
2022-10-17T03:57:01.386Z,18.50
2022-10-17T03:59:06.232Z,18.50
2022-10-17T04:01:15.469Z,17.80
2022-10-17T04:03:20.158Z,18.50
2022-10-17T04:05:25.170Z,17.90
2022-10-17T04:07:30.946Z,18.40
2022-10-17T04:09:35.861Z,17.80
2022-10-17T04:11:46.037Z,18.20
2022-10-17T04:13:54.901Z,17.80
2022-10-17T04:16:01.362Z,18.10
2022-10-17T04:18:06.859Z,17.80
2022-10-17T04:20:12.717Z,18.10
2022-10-17T04:22:17.548Z,17.70
2022-10-17T04:24:22.261Z,18.20
2022-10-17T04:26:39.741Z,18.30
2022-10-17T04:28:44.481Z,17.90
2022-10-17T04:30:55.411Z,18.90
2022-10-17T04:33:00.449Z,18.70
2022-10-17T04:35:07.753Z,17.90
2022-10-17T04:37:12.418Z,17.70
2022-10-17T04:39:17.499Z,18.20
2022-10-17T04:41:22.818Z,17.50
2022-10-17T04:43:27.527Z,17.60
2022-10-17T04:45:32.305Z,18.30
2022-10-17T04:47:39.344Z,17.70
2022-10-17T04:49:44.502Z,18.00
2022-10-17T04:51:49.381Z,17.60
2022-10-17T04:54:00.723Z,18.20
2022-10-17T04:56:10.112Z,17.70
2022-10-17T04:58:14.955Z,17.40
2022-10-17T05:00:20.260Z,17.70
2022-10-17T05:02:36.825Z,17.60
2022-10-17T05:04:41.644Z,17.40
2022-10-17T05:06:46.671Z,16.40
2022-10-17T05:09:11.621Z,16.90
2022-10-17T05:11:20.135Z,17.50
2022-10-17T05:13:24.984Z,18.20
2022-10-17T05:15:29.718Z,18.40
2022-10-17T05:17:37.332Z,18.20
2022-10-17T05:19:43.334Z,17.80
2022-10-17T05:21:48.092Z,17.90
2022-10-17T05:23:53.232Z,18.40
2022-10-17T05:25:58.300Z,16.80
2022-10-17T05:28:04.924Z,17.50
2022-10-17T05:30:11.461Z,17.80
2022-10-17T05:32:16.712Z,17.50
2022-10-17T05:34:21.632Z,16.90
2022-10-17T05:36:26.516Z,17.20
2022-10-17T05:38:31.682Z,17.00
2022-10-17T05:40:36.480Z,16.80
2022-10-17T05:42:45.476Z,16.20
2022-10-17T05:44:50.592Z,16.20
2022-10-17T05:46:56.465Z,16.20
2022-10-17T05:49:01.175Z,15.80
2022-10-17T05:51:08.008Z,15.20
2022-10-17T05:53:13.188Z,15.40
2022-10-17T05:55:22.611Z,15.40
2022-10-17T05:57:27.862Z,15.30
2022-10-17T05:59:32.716Z,14.10
2022-10-17T06:01:50.737Z,14.60
2022-10-17T06:03:55.600Z,13.60
2022-10-17T06:06:05.353Z,14.60
2022-10-17T06:08:13.193Z,13.90
2022-10-17T06:10:18.518Z,13.70
2022-10-17T06:12:23.431Z,14.00
2022-10-17T06:14:28.153Z,13.80
2022-10-17T06:16:37.504Z,13.70
2022-10-17T06:18:42.308Z,14.60
2022-10-17T06:20:47.206Z,13.40
2022-10-17T06:22:53.949Z,13.90
2022-10-17T06:25:12.012Z,13.60
2022-10-17T06:27:16.649Z,13.30
2022-10-17T06:29:21.398Z,13.20
2022-10-17T06:31:28.821Z,13.50
2022-10-17T06:33:34.524Z,14.50
2022-10-17T06:35:41.542Z,13.80
2022-10-17T06:37:46.799Z,13.30
2022-10-17T06:39:51.520Z,13.00
2022-10-17T06:41:59.389Z,15.00
2022-10-17T06:44:20.282Z,13.20
2022-10-17T06:46:35.869Z,14.20
2022-10-17T06:48:43.190Z,13.40
2022-10-17T06:51:09.086Z,13.20
2022-10-17T06:53:22.902Z,13.50
2022-10-17T06:56:06.122Z,13.20
2022-10-17T06:58:26.491Z,14.60
2022-10-17T07:00:43.182Z,13.30
2022-10-17T07:02:49.789Z,13.10
2022-10-17T07:04:54.830Z,13.70
2022-10-17T07:07:02.035Z,13.30
2022-10-17T07:09:07.088Z,13.40
2022-10-17T07:11:16.024Z,13.20
2022-10-17T07:13:21.221Z,12.70
2022-10-17T07:15:25.966Z,13.50
2022-10-17T07:17:30.861Z,13.60
2022-10-17T07:19:35.899Z,13.70
2022-10-17T07:21:40.981Z,13.40
2022-10-17T07:23:48.072Z,13.10
2022-10-17T07:25:53.492Z,13.40
2022-10-17T07:27:58.441Z,14.00
2022-10-17T07:30:03.838Z,14.10
2022-10-17T07:32:28.792Z,13.50
2022-10-17T07:34:35.059Z,13.70
2022-10-17T07:36:39.848Z,14.30
2022-10-17T07:38:45.209Z,14.40
2022-10-17T07:40:56.298Z,14.20
2022-10-17T07:43:01.922Z,15.10
2022-10-17T07:45:09.604Z,14.40
2022-10-17T07:47:14.887Z,14.30
2022-10-17T07:49:19.689Z,14.40
2022-10-17T07:51:24.396Z,15.00
2022-10-17T07:53:29.028Z,15.70
2022-10-17T07:55:33.646Z,15.40
2022-10-17T07:57:38.357Z,15.20
2022-10-17T07:59:43.019Z,15.60
2022-10-17T08:01:48.129Z,16.10
2022-10-17T08:03:53.211Z,16.10
2022-10-17T08:06:01.257Z,15.80
2022-10-17T08:08:06.314Z,14.90
2022-10-17T08:10:13.840Z,15.80
2022-10-17T08:12:18.978Z,15.60
2022-10-17T08:14:23.666Z,15.10
2022-10-17T08:16:31.340Z,14.60
2022-10-17T08:18:36.360Z,14.90
2022-10-17T08:20:41.059Z,15.30
2022-10-17T08:22:53.091Z,15.60
2022-10-17T08:24:57.776Z,15.60
2022-10-17T08:27:02.634Z,15.80
2022-10-17T08:29:12.305Z,15.30
2022-10-17T08:31:18.797Z,14.60
2022-10-17T08:33:23.500Z,15.10
2022-10-17T08:35:28.328Z,14.80
2022-10-17T08:37:35.969Z,14.90
2022-10-17T08:39:40.861Z,14.50
2022-10-17T08:41:57.149Z,14.90
2022-10-17T08:44:12.997Z,15.80
2022-10-17T08:46:19.684Z,14.90
2022-10-17T08:48:27.197Z,15.30
2022-10-17T08:50:37.620Z,15.40
2022-10-17T08:52:45.085Z,15.50
2022-10-17T08:54:50.953Z,15.50
2022-10-17T08:56:58.565Z,16.00
2022-10-17T08:59:04.753Z,15.60
2022-10-17T09:01:22.563Z,15.30
2022-10-17T09:03:48.254Z,15.30
2022-10-17T09:05:58.019Z,15.50
2022-10-17T09:08:12.254Z,15.40
2022-10-17T09:10:25.820Z,15.70
2022-10-17T09:12:40.593Z,15.60
2022-10-17T09:15:11.546Z,15.60
2022-10-17T09:17:29.601Z,15.30
2022-10-17T09:19:37.752Z,15.80
2022-10-17T09:21:46.646Z,15.50
2022-10-17T09:24:03.781Z,15.90
2022-10-17T09:26:17.272Z,15.90
2022-10-17T09:28:26.224Z,16.00
2022-10-17T09:30:46.397Z,16.50
2022-10-17T09:32:52.399Z,16.30
2022-10-17T09:34:57.382Z,16.40
2022-10-17T09:37:09.586Z,16.70
2022-10-17T09:39:17.613Z,16.30
2022-10-17T09:41:44.206Z,16.40
2022-10-17T09:43:52.157Z,16.30
2022-10-17T09:46:08.515Z,15.90
2022-10-17T09:48:23.600Z,16.80
2022-10-17T09:50:31.171Z,17.50
2022-10-17T09:52:43.419Z,16.40
2022-10-17T09:54:49.955Z,17.00
2022-10-17T09:57:03.758Z,15.30
2022-10-17T09:59:13.804Z,15.80
2022-10-17T10:01:24.004Z,16.50
2022-10-17T10:03:29.327Z,16.60
2022-10-17T10:05:34.145Z,16.10
2022-10-17T10:07:39.696Z,16.90
2022-10-17T10:09:49.035Z,15.80
2022-10-17T10:11:56.777Z,16.50
2022-10-17T10:14:19.586Z,16.10
2022-10-17T10:16:30.896Z,16.00
2022-10-17T10:18:36.468Z,14.50
2022-10-17T10:20:41.411Z,15.30
2022-10-17T10:23:05.478Z,15.50
2022-10-17T10:25:16.158Z,14.50
2022-10-17T10:27:29.266Z,14.70
2022-10-17T10:29:36.632Z,15.10
2022-10-17T10:31:41.634Z,15.30
2022-10-17T10:33:49.540Z,14.80
2022-10-17T10:35:59.268Z,15.10
2022-10-17T10:38:09.510Z,14.40
2022-10-17T10:40:22.641Z,14.30
2022-10-17T10:42:30.983Z,14.80
2022-10-17T10:44:38.167Z,14.70
2022-10-17T10:46:43.059Z,14.60
2022-10-17T10:48:55.314Z,16.50
2022-10-17T10:51:02.940Z,16.20
2022-10-17T10:53:20.414Z,17.70
2022-10-17T10:55:29.780Z,16.00
2022-10-17T10:57:38.007Z,17.60
2022-10-17T10:59:49.476Z,17.00
2022-10-17T11:02:00.245Z,14.60
2022-10-17T11:04:17.926Z,14.00
2022-10-17T11:06:27.398Z,15.30
2022-10-17T11:08:40.477Z,15.10
2022-10-17T11:10:57.272Z,14.10
2022-10-17T11:13:11.021Z,14.10
2022-10-17T11:15:23.844Z,14.00
2022-10-17T11:17:34.624Z,14.70
2022-10-17T11:19:45.129Z,14.70
2022-10-17T11:21:56.322Z,15.10
2022-10-17T11:24:09.090Z,13.70
2022-10-17T11:26:18.581Z,14.40
2022-10-17T11:28:24.918Z,13.80
2022-10-17T11:30:41.550Z,14.10
2022-10-17T11:32:50.730Z,14.30
2022-10-17T11:35:00.334Z,14.30
2022-10-17T11:37:12.601Z,14.00
2022-10-17T11:39:20.497Z,13.70
2022-10-17T11:41:34.658Z,13.90
2022-10-17T11:43:45.531Z,13.50
2022-10-17T11:45:55.783Z,13.60
2022-10-17T11:48:06.594Z,13.70
2022-10-17T11:52:56.297Z,13.70
2022-10-17T11:55:11.603Z,13.20
2022-10-17T11:57:39.522Z,13.10
2022-10-17T11:59:58.661Z,12.80
2022-10-17T12:02:09.820Z,13.20
2022-10-17T12:04:35.372Z,13.10
2022-10-17T12:06:57.235Z,13.70
2022-10-17T12:09:11.990Z,12.40
2022-10-17T12:11:42.091Z,13.00
2022-10-17T12:13:52.992Z,12.90
2022-10-17T12:15:59.006Z,12.40
2022-10-17T12:18:16.443Z,12.50
2022-10-17T12:20:37.729Z,12.90
2022-10-17T12:22:48.650Z,12.50
2022-10-17T12:25:01.913Z,13.00
2022-10-17T12:27:37.020Z,12.40
2022-10-17T12:29:41.839Z,12.50
2022-10-17T12:31:46.614Z,12.10
2022-10-17T12:33:53.997Z,12.30
2022-10-17T12:36:29.056Z,12.50
2022-10-17T12:38:33.736Z,12.30
2022-10-17T12:41:01.429Z,12.40
2022-10-17T12:43:46.796Z,12.10
2022-10-17T12:45:52.937Z,12.20
2022-10-17T12:47:57.674Z,12.20
2022-10-17T12:50:02.658Z,12.30
2022-10-17T12:52:24.975Z,11.50
2022-10-17T12:54:37.828Z,11.60
2022-10-17T12:56:52.209Z,12.00
2022-10-17T12:58:58.369Z,11.90
2022-10-17T13:01:23.295Z,11.90
2022-10-17T13:03:32.002Z,11.50
2022-10-17T13:05:40.199Z,11.60
2022-10-17T13:07:48.492Z,11.00
2022-10-17T13:09:53.293Z,10.80
2022-10-17T13:12:00.990Z,11.10
2022-10-17T13:14:13.258Z,11.30
2022-10-17T13:16:31.562Z,10.10
2022-10-17T13:18:36.226Z,11.40
2022-10-17T13:20:40.976Z,10.90
2022-10-17T13:22:47.363Z,11.30
2022-10-17T13:24:53.603Z,11.40
2022-10-17T13:26:58.773Z,11.00
2022-10-17T13:29:06.968Z,11.00
2022-10-17T13:31:29.639Z,11.10
2022-10-17T13:33:37.572Z,11.00
2022-10-17T13:35:59.538Z,10.70
2022-10-17T13:38:07.017Z,10.30
2022-10-17T13:40:49.165Z,10.60
2022-10-17T13:42:44.311Z,10.40
2022-10-17T13:44:49.252Z,10.50
2022-10-17T13:46:54.376Z,9.60
2022-10-17T13:49:08.501Z,9.90
2022-10-17T13:51:14.483Z,10.90
2022-10-17T13:53:30.458Z,10.30
2022-10-17T13:55:35.091Z,10.40
2022-10-17T13:57:39.866Z,11.30
2022-10-17T13:59:46.544Z,10.30
2022-10-17T14:01:51.798Z,10.00
2022-10-17T14:04:08.348Z,9.60
2022-10-17T14:06:17.887Z,9.90
2022-10-17T14:08:23.818Z,10.70
2022-10-17T14:10:33.053Z,10.50
2022-10-17T14:12:42.639Z,10.10
2022-10-17T14:15:09.733Z,9.90
2022-10-17T14:17:25.122Z,10.70
2022-10-17T14:19:32.755Z,10.30
2022-10-17T14:21:44.224Z,11.40
2022-10-17T14:23:50.189Z,10.00
2022-10-17T14:26:06.896Z,11.00
2022-10-17T14:28:16.038Z,10.50
2022-10-17T14:30:55.698Z,10.10
2022-10-17T14:33:04.016Z,11.10
2022-10-17T14:35:37.367Z,9.80
2022-10-17T14:37:45.375Z,10.30
2022-10-17T14:39:52.086Z,10.90
2022-10-17T14:41:59.690Z,10.10
2022-10-17T14:44:16.827Z,10.20
2022-10-17T14:46:21.772Z,10.20
2022-10-17T14:48:28.127Z,9.90
2022-10-17T14:50:34.044Z,10.10
2022-10-17T14:52:39.100Z,9.60
2022-10-17T14:54:46.097Z,10.40
2022-10-17T14:56:53.590Z,10.00
2022-10-17T14:58:58.181Z,10.50
2022-10-17T15:01:03.454Z,10.40
2022-10-17T15:03:08.202Z,10.10
2022-10-17T15:05:13.725Z,9.90
2022-10-17T15:07:19.481Z,10.50
2022-10-17T15:09:24.402Z,10.20
2022-10-17T15:11:29.781Z,10.00
2022-10-17T15:13:40.073Z,9.70
2022-10-17T15:15:47.846Z,10.40
2022-10-17T15:17:52.471Z,10.30
2022-10-17T15:19:57.788Z,11.20
2022-10-17T15:22:02.700Z,10.90
2022-10-17T15:24:07.737Z,10.80
2022-10-17T15:26:19.002Z,10.20
2022-10-17T15:28:23.650Z,10.10
2022-10-17T15:30:32.242Z,11.20
2022-10-17T15:32:36.950Z,10.00
2022-10-17T15:34:42.220Z,9.40
2022-10-17T15:36:51.350Z,9.80
2022-10-17T15:38:58.471Z,9.20
2022-10-17T15:41:03.173Z,9.70
2022-10-17T15:43:09.199Z,9.70
2022-10-17T15:45:15.489Z,9.70
2022-10-17T15:47:27.330Z,8.40
2022-10-17T15:49:32.207Z,8.40
2022-10-17T15:51:36.997Z,8.60
2022-10-17T15:53:41.948Z,8.20
2022-10-17T15:55:47.177Z,8.60
2022-10-17T15:57:51.879Z,8.00
2022-10-17T15:59:57.823Z,8.00
2022-10-17T16:02:02.927Z,8.70
2022-10-17T16:04:09.232Z,8.50
2022-10-17T16:06:14.306Z,8.20
2022-10-17T16:08:19.183Z,8.00
2022-10-17T16:10:24.910Z,7.60
2022-10-17T16:12:30.378Z,7.60
2022-10-17T16:14:35.096Z,7.40
2022-10-17T16:16:41.087Z,6.80
2022-10-17T16:18:45.793Z,7.30
2022-10-17T16:20:50.524Z,7.30
2022-10-17T16:22:55.715Z,7.20
2022-10-17T16:25:00.425Z,7.30
2022-10-17T16:27:05.148Z,6.90
2022-10-17T16:29:10.382Z,7.20
2022-10-17T16:31:22.346Z,7.10
2022-10-17T16:33:27.383Z,7.30
2022-10-17T16:35:36.544Z,7.40
2022-10-17T16:37:45.007Z,6.80
2022-10-17T16:39:49.776Z,7.50
2022-10-17T16:41:57.717Z,6.60
2022-10-17T16:44:05.498Z,7.20
2022-10-17T16:46:10.197Z,6.90
2022-10-17T16:48:15.983Z,6.90
2022-10-17T16:50:20.763Z,6.90
2022-10-17T16:52:25.795Z,7.10
2022-10-17T16:54:30.523Z,7.30
2022-10-17T16:56:35.410Z,7.00
2022-10-17T16:58:41.275Z,7.30
2022-10-17T17:00:48.487Z,6.60
2022-10-17T17:02:53.679Z,7.10
2022-10-17T17:04:58.532Z,7.10
2022-10-17T17:07:04.349Z,7.10
2022-10-17T17:09:09.799Z,6.50
2022-10-17T17:11:18.439Z,6.60
2022-10-17T17:13:24.909Z,7.10
2022-10-17T17:15:31.074Z,7.10
2022-10-17T17:17:54.712Z,6.40
2022-10-17T17:20:02.326Z,6.20
2022-10-17T17:22:11.306Z,5.90
2022-10-17T17:24:17.464Z,6.50
2022-10-17T17:26:25.345Z,6.20
2022-10-17T17:28:32.564Z,6.60
2022-10-17T17:30:39.419Z,6.70
2022-10-17T17:32:44.618Z,6.90
2022-10-17T17:34:49.426Z,6.40
2022-10-17T17:36:55.057Z,6.70
2022-10-17T17:39:01.943Z,6.20
2022-10-17T17:41:11.240Z,6.50
2022-10-17T17:43:16.509Z,6.20
2022-10-17T17:45:23.260Z,6.50
2022-10-17T17:47:30.386Z,6.90
2022-10-17T17:49:36.293Z,6.70
2022-10-17T17:51:43.549Z,6.40
2022-10-17T17:53:50.085Z,6.90
2022-10-17T17:56:05.922Z,6.90
2022-10-17T17:58:11.683Z,6.90
2022-10-17T18:00:17.463Z,7.20
2022-10-17T18:02:23.564Z,7.10
2022-10-17T18:04:29.461Z,7.10
2022-10-17T18:06:35.058Z,7.00
2022-10-17T18:08:40.633Z,7.10
2022-10-17T18:10:50.696Z,7.00
2022-10-17T18:12:56.248Z,7.00
2022-10-17T18:15:03.599Z,7.00
2022-10-17T18:17:12.512Z,6.80
2022-10-17T18:19:19.831Z,7.20
2022-10-17T18:21:25.728Z,6.60
2022-10-17T18:23:32.724Z,7.40
2022-10-17T18:25:39.340Z,7.10
2022-10-17T18:27:45.145Z,7.80
2022-10-17T18:29:51.956Z,7.90
2022-10-17T18:32:01.756Z,7.90
2022-10-17T18:34:08.718Z,8.00
2022-10-17T18:36:16.268Z,7.40
2022-10-17T18:38:23.279Z,7.50
2022-10-17T18:40:36.283Z,7.90
2022-10-17T18:42:44.214Z,7.50
2022-10-17T18:44:52.746Z,7.70
2022-10-17T18:47:02.897Z,7.70
2022-10-17T18:49:10.875Z,7.80
2022-10-17T18:51:26.361Z,7.60
2022-10-17T18:53:32.988Z,8.20
2022-10-17T18:55:40.712Z,7.90
2022-10-17T18:57:48.064Z,7.80
2022-10-17T18:59:57.770Z,8.10
2022-10-17T19:02:04.043Z,8.00
2022-10-17T19:04:10.123Z,8.00
2022-10-17T19:06:17.820Z,7.80
2022-10-17T19:08:23.011Z,7.80
2022-10-17T19:10:27.665Z,8.10
2022-10-17T19:12:34.430Z,7.90
2022-10-17T19:14:40.585Z,8.00
2022-10-17T19:16:47.411Z,8.20
2022-10-17T19:18:53.826Z,7.50
2022-10-17T19:21:03.469Z,8.00
2022-10-17T19:23:08.174Z,7.70
2022-10-17T19:25:12.986Z,7.90
2022-10-17T19:27:18.369Z,7.70
2022-10-17T19:29:27.929Z,8.10
2022-10-17T19:31:35.313Z,7.70
2022-10-17T19:33:40.169Z,8.10
2022-10-17T19:35:44.976Z,8.30
2022-10-17T19:37:51.041Z,8.40
2022-10-17T19:39:56.107Z,8.10
2022-10-17T19:42:06.737Z,8.30
2022-10-17T19:44:13.567Z,8.50
2022-10-17T19:46:20.363Z,8.30
2022-10-17T19:48:25.726Z,8.20
2022-10-17T19:50:31.987Z,8.20
2022-10-17T19:52:36.996Z,9.10
2022-10-17T19:54:46.247Z,8.90
2022-10-17T19:56:51.908Z,7.90
2022-10-17T19:58:57.070Z,8.30
2022-10-17T20:01:05.752Z,8.30
2022-10-17T20:03:10.585Z,9.00
2022-10-17T20:05:18.886Z,8.80
2022-10-17T20:07:24.029Z,8.60
2022-10-17T20:09:28.830Z,8.90
2022-10-17T20:11:34.639Z,8.70
2022-10-17T20:13:40.867Z,8.80
2022-10-17T20:15:55.438Z,8.90
2022-10-17T20:18:01.179Z,8.80
2022-10-17T20:20:08.828Z,8.60
2022-10-17T20:22:14.154Z,9.70
2022-10-17T20:24:18.956Z,8.90
2022-10-17T20:26:36.566Z,8.80
2022-10-17T20:28:43.110Z,8.70
2022-10-17T20:30:47.974Z,8.60
2022-10-17T20:32:55.103Z,9.20
2022-10-17T20:35:00.416Z,9.30
2022-10-17T20:37:05.392Z,8.90
2022-10-17T20:39:12.432Z,9.30
2022-10-17T20:41:17.105Z,8.60
2022-10-17T20:43:21.790Z,8.70
2022-10-17T20:45:37.639Z,8.90
2022-10-17T20:47:52.846Z,8.70
2022-10-17T20:49:57.739Z,9.20
2022-10-17T20:52:02.849Z,8.80
2022-10-17T20:54:07.490Z,8.90
2022-10-17T20:56:19.809Z,8.60
2022-10-17T20:58:24.462Z,8.50
2022-10-17T21:00:29.197Z,9.00
2022-10-17T21:02:33.926Z,8.70
2022-10-17T21:04:46.350Z,8.60
2022-10-17T21:06:51.707Z,8.30
2022-10-17T21:08:59.208Z,8.20
2022-10-17T21:11:12.450Z,8.90
2022-10-17T21:13:17.170Z,8.60
2022-10-17T21:15:21.807Z,8.80
2022-10-17T21:17:26.605Z,8.30
2022-10-17T21:19:31.256Z,8.80
2022-10-17T21:21:37.851Z,8.80
2022-10-17T21:23:43.550Z,8.20
2022-10-17T21:25:48.221Z,7.90
2022-10-17T21:27:54.639Z,8.00
2022-10-17T21:29:59.327Z,7.40
2022-10-17T21:32:11.371Z,8.20
2022-10-17T21:34:28.816Z,7.70
2022-10-17T21:36:33.616Z,7.80
2022-10-17T21:38:39.530Z,7.90
2022-10-17T21:40:48.774Z,7.90
2022-10-17T21:42:54.156Z,7.70
2022-10-17T21:44:58.748Z,7.80
2022-10-17T21:47:03.430Z,7.60
2022-10-17T21:49:09.606Z,7.80
2022-10-17T21:51:23.209Z,7.70
2022-10-17T21:53:28.058Z,7.70
2022-10-17T21:55:35.534Z,7.90
2022-10-17T21:57:40.169Z,7.50
2022-10-17T21:59:44.761Z,7.60
2022-10-17T22:01:49.517Z,7.30
2022-10-17T22:03:55.699Z,7.40
2022-10-17T22:06:12.971Z,7.30
2022-10-17T22:08:25.064Z,7.40
2022-10-17T22:10:29.748Z,7.80
2022-10-17T22:12:34.439Z,7.60
2022-10-17T22:14:39.114Z,7.60
2022-10-17T22:16:44.521Z,8.00
2022-10-17T22:18:49.483Z,7.60
2022-10-17T22:20:54.103Z,7.70
2022-10-17T22:22:58.775Z,8.00
2022-10-17T22:25:03.585Z,7.70
2022-10-17T22:27:08.242Z,7.20
2022-10-17T22:29:13.649Z,7.30
2022-10-17T22:31:18.460Z,7.30
2022-10-17T22:33:23.206Z,8.00
2022-10-17T22:35:27.908Z,7.80
2022-10-17T22:37:32.810Z,7.90
2022-10-17T22:39:37.818Z,7.80
2022-10-17T22:41:42.549Z,8.00
2022-10-17T22:43:47.340Z,7.30
2022-10-17T22:45:56.576Z,7.80
2022-10-17T22:48:01.208Z,7.70
2022-10-17T22:50:06.613Z,7.60
2022-10-17T22:52:11.251Z,7.50
2022-10-17T22:54:16.199Z,7.50
2022-10-17T22:56:22.112Z,7.60
2022-10-17T22:58:28.612Z,7.60
2022-10-17T23:00:33.228Z,7.50
2022-10-17T23:02:38.361Z,7.50
2022-10-17T23:04:43.015Z,7.60
2022-10-17T23:06:47.654Z,7.30
2022-10-17T23:08:52.306Z,7.40
2022-10-17T23:10:57.301Z,7.30
2022-10-17T23:13:02.309Z,7.40
2022-10-17T23:15:08.683Z,7.90
2022-10-17T23:17:13.893Z,7.20
2022-10-17T23:19:18.810Z,7.20
2022-10-17T23:21:23.514Z,7.00
2022-10-17T23:23:28.189Z,7.10
2022-10-17T23:25:34.430Z,7.50
2022-10-17T23:27:39.004Z,7.20
2022-10-17T23:29:44.810Z,7.60
2022-10-17T23:31:49.501Z,7.70
2022-10-17T23:33:54.113Z,6.80
2022-10-17T23:35:58.826Z,6.90
2022-10-17T23:38:03.485Z,6.80
2022-10-17T23:40:09.949Z,7.40
2022-10-17T23:42:14.555Z,7.00
2022-10-17T23:44:20.693Z,6.50
2022-10-17T23:46:25.483Z,6.70
2022-10-17T23:48:30.486Z,6.70
2022-10-17T23:50:35.375Z,7.10
2022-10-17T23:52:40.047Z,7.10
2022-10-17T23:54:44.739Z,6.90
2022-10-17T23:56:49.367Z,6.80
2022-10-17T23:58:54.093Z,6.50
